MSC Suez — HPMS — position and weather

sailwx.info

Track history (hours):
 
Tides and Currents Weather Stations Pressure Air Temp Water Temp Dewpoint Dewpoint Depression Visibility Wind Speed Wind Dir Waves Ship Positions

MSC Suez

Last reported at 2016-Aug-24 10:13 UTC. Time now 2016-Aug-25 11:29 UTC.
Position N 08°25' W 014°55'.

Length 237 m; draft 8.6 m.

Type: Ship. MMSI: 355289000.

Date/timePositionNaut miles runAvg speedWind from/ knotsBaromVisibWave heightAir tempDewpointWater temp
2016-Aug-24 10:13N 08°25' W 014°55'711.3
2016-Aug-24 09:34N 08°20' W 014°49'  
2016-Aug-20 16:09N 05°09' W 004°03'6 8.9
2016-Aug-20 15:26N 05°15' W 003°60'2 1.5
2016-Aug-20 14:15N 05°16' W 004°01'0 0.0
2016-Aug-20 12:09N 05°16' W 004°01'0 0.0
2016-Aug-20 08:09N 05°16' W 004°01'0 0.0
2016-Aug-20 04:33N 05°16' W 004°01'0 0.0
2016-Aug-20 00:24N 05°16' W 004°01'0 0.0
2016-Aug-19 20:06N 05°16' W 004°01'0 0.0
2016-Aug-19 19:18N 05°16' W 004°01'0 0.0
2016-Aug-19 12:21N 05°16' W 004°01'0 0.0
2016-Aug-19 11:27N 05°16' W 004°01'0 0.0
2016-Aug-19 06:27N 05°16' W 004°01'0 0.0
2016-Aug-19 04:33N 05°16' W 004°01'1 1.2
2016-Aug-19 03:32N 05°16' W 004°02'0 0.0
2016-Aug-19 02:33N 05°16' W 004°02'0 0.0
2016-Aug-19 01:32N 05°16' W 004°02'0 0.0
2016-Aug-19 00:32N 05°16' W 004°02'0 0.2
2016-Aug-18 23:31N 05°16' W 004°02'0 0.2
2016-Aug-18 22:30N 05°16' W 004°02'0 0.1
2016-Aug-18 21:33N 05°16' W 004°02'0 0.0
2016-Aug-18 20:33N 05°16' W 004°02'0 0.0
2016-Aug-18 19:33N 05°16' W 004°02'2 2.1
2016-Aug-18 18:33N 05°15' W 004°00'5 5.3
2016-Aug-18 17:32N 05°10' W 004°02'1 1.4
2016-Aug-18 16:32N 05°09' W 004°02'4 3.7
2016-Aug-18 15:31N 05°11' W 003°59'2 1.9
2016-Aug-18 14:32N 05°13' W 003°59'6 0.9
2016-Aug-18 07:22N 05°07' W 004°00'  
Track history (hours):
 
Tides and Currents Weather Stations Pressure Air Temp Water Temp Dewpoint Dewpoint Depression Visibility Wind Speed Wind Dir Waves Ship Positions

MSC Suez

Last reported at 2016-Aug-24 10:13 UTC. Time now 2016-Aug-25 11:29 UTC.
Position N 08°25' W 014°55'.

Length 237 m; draft 8.6 m.

Type: Ship. MMSI: 355289000.

Date/timePositionNaut miles runAvg speedWind from/ knotsBaromVisibWave heightAir tempDewpointWater temp
2016-Aug-24 10:13N 08°25' W 014°55'711.3
2016-Aug-24 09:34N 08°20' W 014°49'  
2016-Aug-20 16:09N 05°09' W 004°03'6 8.9
2016-Aug-20 15:26N 05°15' W 003°60'2 1.5
2016-Aug-20 14:15N 05°16' W 004°01'0 0.0
2016-Aug-20 12:09N 05°16' W 004°01'0 0.0
2016-Aug-20 08:09N 05°16' W 004°01'0 0.0
2016-Aug-20 04:33N 05°16' W 004°01'0 0.0
2016-Aug-20 00:24N 05°16' W 004°01'0 0.0
2016-Aug-19 20:06N 05°16' W 004°01'0 0.0
2016-Aug-19 19:18N 05°16' W 004°01'0 0.0
2016-Aug-19 12:21N 05°16' W 004°01'0 0.0
2016-Aug-19 11:27N 05°16' W 004°01'0 0.0
2016-Aug-19 06:27N 05°16' W 004°01'0 0.0
2016-Aug-19 04:33N 05°16' W 004°01'1 1.2
2016-Aug-19 03:32N 05°16' W 004°02'0 0.0
2016-Aug-19 02:33N 05°16' W 004°02'0 0.0
2016-Aug-19 01:32N 05°16' W 004°02'0 0.0
2016-Aug-19 00:32N 05°16' W 004°02'0 0.2
2016-Aug-18 23:31N 05°16' W 004°02'0 0.2
2016-Aug-18 22:30N 05°16' W 004°02'0 0.1
2016-Aug-18 21:33N 05°16' W 004°02'0 0.0
2016-Aug-18 20:33N 05°16' W 004°02'0 0.0
2016-Aug-18 19:33N 05°16' W 004°02'2 2.1
2016-Aug-18 18:33N 05°15' W 004°00'5 5.3
2016-Aug-18 17:32N 05°10' W 004°02'1 1.4
2016-Aug-18 16:32N 05°09' W 004°02'4 3.7
2016-Aug-18 15:31N 05°11' W 003°59'2 1.9
2016-Aug-18 14:32N 05°13' W 003°59'6 0.9
2016-Aug-18 07:22N 05°07' W 004°00'  

Dump ship's entire track history